Albertus Airport

About
Name: Albertus Airport
Identifier:  FEP/KFEP
Local Time:  18. Aug 00:06 CDT
Location
Flights per Day
0 flights
Distance: 719km (447mi)
Punctuality
50% (0 flights per day delayed)
Delay Average: 16 minutes
Current Weather
 20 C (Humidity: 100%)
  5kt (9km/h / 5mph) from 190°
  16km (10 mi.)
 
 METAR KFEP 180435Z AUTO 19005KT 10SM CLR 20/20 A2989 RMK AO2 LTG DSNT W AND NW T01960196

Current Flights

Departures
Number Departure To Airline
Arrivals
Number Arrival From Airline

Current Delays

Departures
N/A
Arrivals
N/A

Destinations

Top Destinations
Airport Flights
per week
Seats
per week
  Springfield (SPI) 0 - 0 0
  Jonesboro (JBR) 0 - 0 0
  Chicago (DPA) 0 - 0 0
  Romeoville (LOT) 0 - 0 0

Airlines & Planes

Top Airlines
Airline Flights
per Day
Seats
per Day
  Novair 0 -
  Nolinor Aviation 0 -
Jet Charter Inc ( Franklin Lakes Nj ) 0 -
Top Plane Types
Model Flights Seats
Beech 58 0.1/day - 0
Beech B200 Super King Air 0.0/day - 0
Cessna C172 0.0/day - 0